createdAt,value
2019-01-20T00:01:25.035Z,-6.00
2019-01-20T00:03:54.128Z,-6.10
2019-01-20T00:06:42.374Z,-6.20
2019-01-20T00:09:30.653Z,-6.20
2019-01-20T00:12:11.406Z,-6.30
2019-01-20T00:14:50.739Z,-6.30
2019-01-20T00:17:32.315Z,-6.40
2019-01-20T00:20:13.625Z,-6.40
2019-01-20T00:22:54.354Z,-6.30
2019-01-20T00:25:35.000Z,-6.40
2019-01-20T00:28:15.968Z,-6.20
2019-01-20T00:30:57.067Z,-6.40
2019-01-20T00:33:38.403Z,-6.40
2019-01-20T00:36:18.983Z,-6.30
2019-01-20T00:39:00.532Z,-6.50
2019-01-20T00:44:45.001Z,-6.70
2019-01-20T00:50:35.003Z,-6.80
2019-01-20T00:55:57.734Z,-6.80
2019-01-20T00:58:38.690Z,-6.80
2019-01-20T01:01:19.412Z,-6.80
2019-01-20T01:03:48.505Z,-6.90
2019-01-20T01:06:36.694Z,-6.90
2019-01-20T01:09:25.288Z,-6.90
2019-01-20T01:12:07.502Z,-6.80
2019-01-20T01:14:48.807Z,-6.80
2019-01-20T01:17:30.589Z,-6.80
2019-01-20T01:20:11.923Z,-6.90
2019-01-20T01:22:53.644Z,-6.80
2019-01-20T01:25:22.830Z,-6.80
2019-01-20T01:28:03.705Z,-6.70
2019-01-20T01:30:44.732Z,-6.70
2019-01-20T01:33:25.735Z,-6.80
2019-01-20T01:35:54.756Z,-6.90
2019-01-20T01:38:43.056Z,-6.90
2019-01-20T01:41:31.286Z,-6.80
2019-01-20T01:44:12.024Z,-6.90
2019-01-20T01:46:52.871Z,-6.90
2019-01-20T01:49:33.914Z,-6.80
2019-01-20T01:52:14.835Z,-6.90
2019-01-20T01:54:56.322Z,-6.90
2019-01-20T01:57:37.821Z,-7.00
2019-01-20T02:00:19.222Z,-7.10
2019-01-20T02:03:00.561Z,-7.20
2019-01-20T02:05:29.711Z,-7.10
2019-01-20T02:07:59.473Z,-6.90
2019-01-20T02:10:47.734Z,-7.00
2019-01-20T02:13:17.784Z,-7.10
2019-01-20T02:16:06.129Z,-6.90
2019-01-20T02:18:35.058Z,-6.90
2019-01-20T02:21:23.344Z,-6.90
2019-01-20T02:24:03.862Z,-6.80
2019-01-20T02:26:45.000Z,-6.80
2019-01-20T02:29:26.189Z,-6.70
2019-01-20T02:32:06.790Z,-6.70
2019-01-20T02:34:35.781Z,-6.80
2019-01-20T02:37:24.114Z,-6.80
2019-01-20T02:40:12.442Z,-6.80
2019-01-20T02:42:53.797Z,-6.90
2019-01-20T02:45:22.800Z,-7.00
2019-01-20T02:48:11.076Z,-6.90
2019-01-20T02:50:47.264Z,-7.00
2019-01-20T02:53:35.540Z,-6.90
2019-01-20T02:56:17.049Z,-6.90
2019-01-20T02:58:59.426Z,-7.00
2019-01-20T03:01:28.552Z,-7.20
2019-01-20T03:11:14.838Z,-7.50
2019-01-20T03:13:56.225Z,-7.40
2019-01-20T03:16:25.342Z,-7.40
2019-01-20T03:19:32.882Z,-7.30
2019-01-20T03:25:14.160Z,-7.00
2019-01-20T03:27:43.791Z,-7.00
2019-01-20T03:30:31.964Z,-7.00
2019-01-20T03:33:20.261Z,-7.00
2019-01-20T03:36:01.191Z,-6.90
2019-01-20T03:38:41.797Z,-6.90
2019-01-20T03:41:10.875Z,-6.90
2019-01-20T03:43:59.140Z,-6.70
2019-01-20T03:46:40.385Z,-6.80
2019-01-20T03:49:21.119Z,-6.60
2019-01-20T03:52:02.665Z,-6.80
2019-01-20T03:54:43.118Z,-6.40
2019-01-20T03:57:23.633Z,-6.40
2019-01-20T03:59:52.547Z,-6.30
2019-01-20T04:08:17.908Z,-6.00
2019-01-20T04:11:06.022Z,-6.10
2019-01-20T04:13:54.499Z,-5.90
2019-01-20T04:16:35.610Z,-6.10
2019-01-20T04:19:04.524Z,-6.20
2019-01-20T04:21:52.704Z,-6.30
2019-01-20T04:24:21.749Z,-6.50
2019-01-20T04:27:09.979Z,-6.40
2019-01-20T04:29:51.102Z,-6.60
2019-01-20T04:32:32.384Z,-6.60
2019-01-20T04:35:12.920Z,-6.70
2019-01-20T04:37:53.806Z,-6.60
2019-01-20T04:40:34.987Z,-6.80
2019-01-20T04:43:04.019Z,-6.80
2019-01-20T04:45:33.086Z,-6.80
2019-01-20T04:48:02.206Z,-6.90
2019-01-20T04:50:50.705Z,-7.00
2019-01-20T04:56:26.783Z,-7.00
2019-01-20T04:59:07.813Z,-7.10
2019-01-20T05:01:49.495Z,-7.10
2019-01-20T05:04:30.624Z,-7.20
2019-01-20T05:06:59.656Z,-7.10
2019-01-20T05:09:48.684Z,-7.10
2019-01-20T05:12:37.317Z,-7.10
2019-01-20T05:15:13.175Z,-7.00
2019-01-20T05:17:54.239Z,-6.90
2019-01-20T05:20:35.545Z,-7.00
2019-01-20T05:23:17.095Z,-7.00
2019-01-20T05:25:58.333Z,-6.80
2019-01-20T05:28:39.116Z,-6.90
2019-01-20T05:31:08.052Z,-6.90
2019-01-20T05:33:56.340Z,-6.90
2019-01-20T05:36:44.619Z,-6.90
2019-01-20T05:39:25.759Z,-7.00
2019-01-20T05:42:07.483Z,-6.80
2019-01-20T05:44:36.475Z,-6.90
2019-01-20T05:47:24.784Z,-7.00
2019-01-20T05:50:13.299Z,-6.90
2019-01-20T05:52:54.357Z,-7.00
2019-01-20T05:55:34.873Z,-7.10
2019-01-20T05:58:04.117Z,-7.10
2019-01-20T06:00:53.658Z,-7.20
2019-01-20T06:03:42.735Z,-7.20
2019-01-20T06:06:30.495Z,-7.20
2019-01-20T06:09:11.464Z,-7.30
2019-01-20T06:11:40.685Z,-7.30
2019-01-20T06:14:29.726Z,-7.50
2019-01-20T06:17:11.994Z,-7.30
2019-01-20T06:19:52.651Z,-7.30
2019-01-20T06:22:34.434Z,-7.30
2019-01-20T06:25:16.214Z,-7.30
2019-01-20T06:27:58.084Z,-7.40
2019-01-20T06:30:40.156Z,-7.40
2019-01-20T06:33:21.460Z,-7.30
2019-01-20T06:35:50.502Z,-7.30
2019-01-20T06:38:38.655Z,-7.30
2019-01-20T06:41:26.740Z,-7.30
2019-01-20T06:44:07.672Z,-7.30
2019-01-20T06:46:48.732Z,-7.30
2019-01-20T06:49:30.409Z,-7.30
2019-01-20T06:52:12.169Z,-7.30
2019-01-20T06:54:56.448Z,-7.30
2019-01-20T06:57:39.298Z,-7.40
2019-01-20T07:00:20.668Z,-7.40
2019-01-20T07:03:01.868Z,-7.50
2019-01-20T07:05:43.515Z,-7.60
2019-01-20T07:08:12.676Z,-7.70
2019-01-20T07:10:41.610Z,-7.80
2019-01-20T07:13:11.372Z,-7.70
2019-01-20T07:15:40.362Z,-7.80
2019-01-20T07:21:24.102Z,-7.60
2019-01-20T07:24:08.219Z,-7.60
2019-01-20T07:26:55.847Z,-7.70
2019-01-20T07:29:40.202Z,-7.60
2019-01-20T07:32:22.406Z,-7.60
2019-01-20T07:35:01.785Z,-7.70
2019-01-20T07:37:50.289Z,-7.60
2019-01-20T07:40:31.117Z,-7.60
2019-01-20T07:43:16.851Z,-7.30
2019-01-20T07:45:54.441Z,-7.30
2019-01-20T07:48:35.666Z,-7.20
2019-01-20T07:51:04.676Z,-7.00
2019-01-20T07:53:52.880Z,-7.00
2019-01-20T07:56:41.270Z,-6.90
2019-01-20T07:59:22.241Z,-6.80
2019-01-20T08:02:02.842Z,-6.60
2019-01-20T08:04:43.683Z,-6.60
2019-01-20T08:07:24.514Z,-6.40
2019-01-20T08:10:05.966Z,-6.50
2019-01-20T08:12:34.917Z,-6.30
2019-01-20T08:15:23.155Z,-6.20
2019-01-20T08:18:07.273Z,-6.20
2019-01-20T08:20:48.747Z,-6.00
2019-01-20T08:23:17.838Z,-6.10
2019-01-20T08:26:06.701Z,-6.00
2019-01-20T08:28:50.778Z,-5.90
2019-01-20T08:31:20.018Z,-5.80
2019-01-20T08:34:08.323Z,-5.70
2019-01-20T08:36:56.618Z,-5.80
2019-01-20T08:39:37.843Z,-5.80
2019-01-20T08:45:04.420Z,-5.60
2019-01-20T08:47:45.389Z,-5.50
2019-01-20T08:50:26.159Z,-5.30
2019-01-20T08:53:07.074Z,-5.10
2019-01-20T08:55:47.905Z,-5.10
2019-01-20T08:58:17.667Z,-4.90
2019-01-20T09:00:46.707Z,-4.70
2019-01-20T09:03:35.004Z,-4.70
2019-01-20T09:06:23.197Z,-4.60
2019-01-20T09:11:34.775Z,-4.60
2019-01-20T09:14:22.914Z,-5.60
2019-01-20T09:17:04.190Z,-4.60
2019-01-20T09:22:23.798Z,-4.40
2019-01-20T09:24:52.834Z,-4.40
2019-01-20T09:27:41.281Z,-4.30
2019-01-20T09:30:29.460Z,-4.20
2019-01-20T09:32:58.544Z,-4.20
2019-01-20T09:35:46.671Z,-4.20
2019-01-20T09:38:34.840Z,-4.10
2019-01-20T09:41:23.108Z,-4.00
2019-01-20T09:44:04.021Z,-3.80
2019-01-20T09:46:45.212Z,-3.80
2019-01-20T09:49:26.072Z,-3.50
2019-01-20T09:52:07.522Z,-3.50
2019-01-20T09:54:48.208Z,-3.70
2019-01-20T09:57:29.388Z,-3.80
2019-01-20T10:00:10.765Z,-3.90
2019-01-20T10:02:39.891Z,-3.80
2019-01-20T10:05:09.347Z,-3.70
2019-01-20T10:07:57.638Z,-3.60
2019-01-20T10:10:45.947Z,-3.80
2019-01-20T10:13:54.639Z,-3.70
2019-01-20T10:16:18.597Z,-3.70
2019-01-20T10:18:47.728Z,-3.60
2019-01-20T10:21:37.243Z,-3.50
2019-01-20T10:24:18.475Z,-3.40
2019-01-20T10:26:47.607Z,-3.40
2019-01-20T10:29:35.843Z,-3.30
2019-01-20T10:32:04.876Z,-3.20
2019-01-20T10:37:40.989Z,-2.90
2019-01-20T10:42:52.291Z,-2.60
2019-01-20T10:45:40.561Z,-2.70
2019-01-20T10:48:21.728Z,-2.60
2019-01-20T10:51:02.246Z,-2.60
2019-01-20T10:53:43.356Z,-2.70
2019-01-20T10:56:24.014Z,-2.80
2019-01-20T10:59:06.537Z,-3.00
2019-01-20T11:01:49.433Z,-3.20
2019-01-20T11:04:30.794Z,-3.30
2019-01-20T11:06:59.835Z,-3.10
2019-01-20T11:09:48.157Z,-3.00
2019-01-20T11:12:36.315Z,-2.80
2019-01-20T11:15:20.490Z,-2.80
2019-01-20T11:18:01.784Z,-2.70
2019-01-20T11:20:42.712Z,-2.80
2019-01-20T11:23:11.956Z,-2.90
2019-01-20T11:25:42.973Z,-2.90
2019-01-20T11:28:31.240Z,-2.70
2019-01-20T11:31:19.434Z,-2.50
2019-01-20T11:36:36.560Z,-2.40
2019-01-20T11:39:24.860Z,-2.20
2019-01-20T11:42:05.643Z,-1.80
2019-01-20T11:44:34.572Z,-1.80
2019-01-20T11:50:18.943Z,-1.60
2019-01-20T11:53:07.204Z,-1.60
2019-01-20T11:55:36.199Z,-1.80
2019-01-20T11:58:24.378Z,-1.70
2019-01-20T12:01:12.576Z,-1.80
2019-01-20T12:03:56.764Z,-1.80
2019-01-20T12:06:38.129Z,-1.80
2019-01-20T12:09:19.501Z,-1.50
2019-01-20T12:11:48.509Z,-1.40
2019-01-20T12:14:36.956Z,-1.50
2019-01-20T12:17:06.325Z,-1.40
2019-01-20T12:20:11.380Z,-1.00
2019-01-20T12:22:41.818Z,-1.10
2019-01-20T12:25:27.996Z,-1.40
2019-01-20T12:27:59.570Z,-1.40
2019-01-20T12:30:30.436Z,-1.00
2019-01-20T12:36:38.911Z,-0.30
2019-01-20T12:39:35.413Z,-0.30
2019-01-20T12:47:28.855Z,-0.10
2019-01-20T12:50:09.945Z,-0.10
2019-01-20T12:52:51.307Z,-0.30
2019-01-20T12:55:20.544Z,-0.10
2019-01-20T12:58:08.854Z,-0.30
2019-01-20T13:00:50.124Z,-0.30
2019-01-20T13:03:31.324Z,-0.20
2019-01-20T13:09:17.412Z,0.30
2019-01-20T13:12:01.424Z,0.00
2019-01-20T13:23:02.182Z,-0.30
2019-01-20T13:25:31.820Z,0.00
2019-01-20T13:28:20.008Z,0.00
2019-01-20T13:31:08.326Z,0.10
2019-01-20T13:33:49.401Z,-0.10
2019-01-20T13:36:18.447Z,-0.30
2019-01-20T13:39:08.623Z,-0.30
2019-01-20T13:41:56.837Z,-0.20
2019-01-20T13:44:37.524Z,-0.10
2019-01-20T13:47:18.397Z,-0.20
2019-01-20T13:50:02.882Z,-0.20
2019-01-20T13:52:44.107Z,-0.40
2019-01-20T13:55:25.101Z,-0.30
2019-01-20T14:00:57.681Z,-0.50
2019-01-20T14:03:38.190Z,-0.60
2019-01-20T14:06:18.669Z,-0.70
2019-01-20T14:08:59.272Z,-0.70
2019-01-20T14:11:40.489Z,-0.70
2019-01-20T14:17:03.882Z,-0.60
2019-01-20T14:22:36.221Z,-0.60
2019-01-20T14:28:01.852Z,-0.30
2019-01-20T14:33:24.445Z,0.10
2019-01-20T14:36:05.279Z,0.00
2019-01-20T14:38:46.227Z,-0.30
2019-01-20T14:44:19.085Z,-0.40
2019-01-20T14:47:00.153Z,-0.40
2019-01-20T14:49:43.907Z,-0.40
2019-01-20T14:52:25.182Z,-0.30
2019-01-20T14:54:55.913Z,-0.30
2019-01-20T14:57:44.174Z,-0.40
2019-01-20T15:00:19.624Z,-0.30
2019-01-20T15:03:08.182Z,-0.40
2019-01-20T15:05:52.423Z,-0.50
2019-01-20T15:11:20.860Z,-0.60
2019-01-20T15:13:49.967Z,-1.00
2019-01-20T15:16:38.375Z,-1.20
2019-01-20T15:19:26.637Z,-1.30
2019-01-20T15:22:07.727Z,-1.30
2019-01-20T15:24:36.784Z,-1.40
2019-01-20T15:27:25.129Z,-1.60
2019-01-20T15:30:05.701Z,-1.60
2019-01-20T15:32:46.559Z,-1.60
2019-01-20T15:35:30.959Z,-1.60
2019-01-20T15:38:00.119Z,-1.60
2019-01-20T15:40:48.377Z,-1.80
2019-01-20T15:46:11.816Z,-1.90
2019-01-20T15:48:53.182Z,-1.90
2019-01-20T15:51:36.749Z,-2.10
2019-01-20T15:54:06.145Z,-2.10
2019-01-20T15:56:54.226Z,-2.10
2019-01-20T15:59:42.596Z,-2.30
2019-01-20T16:02:26.611Z,-2.20
2019-01-20T16:05:07.193Z,-2.30
2019-01-20T16:10:33.342Z,-2.40
2019-01-20T16:13:14.599Z,-2.40
2019-01-20T16:15:55.257Z,-2.50
2019-01-20T16:18:37.868Z,-2.50
2019-01-20T16:21:19.233Z,-2.70
2019-01-20T16:23:59.905Z,-2.80
2019-01-20T16:26:41.943Z,-2.70
2019-01-20T16:29:23.097Z,-2.70
2019-01-20T16:32:04.204Z,-2.90
2019-01-20T16:34:44.980Z,-2.80
2019-01-20T16:37:26.119Z,-2.70
2019-01-20T16:40:06.985Z,-2.80
2019-01-20T16:42:48.300Z,-2.90
2019-01-20T16:45:19.515Z,-2.90
2019-01-20T16:48:07.777Z,-2.90
2019-01-20T16:50:56.035Z,-2.90
2019-01-20T16:53:44.249Z,-3.10
2019-01-20T16:56:25.407Z,-3.00
2019-01-20T16:59:08.311Z,-2.90
2019-01-20T17:01:49.357Z,-3.20
2019-01-20T17:04:30.470Z,-3.20
2019-01-20T17:06:59.474Z,-3.30
2019-01-20T17:09:47.774Z,-3.40
2019-01-20T17:12:36.099Z,-3.40
2019-01-20T17:15:17.308Z,-3.50
2019-01-20T17:17:56.553Z,-3.60
2019-01-20T17:20:37.803Z,-3.60
2019-01-20T17:23:19.024Z,-3.70
2019-01-20T17:25:48.300Z,-3.80
2019-01-20T17:28:36.652Z,-4.00
2019-01-20T17:31:18.133Z,-4.00
2019-01-20T17:33:59.574Z,-3.90
2019-01-20T17:36:29.488Z,-3.90
2019-01-20T17:38:58.671Z,-4.00
2019-01-20T17:41:47.149Z,-4.10
2019-01-20T17:44:35.320Z,-4.00
2019-01-20T17:47:16.503Z,-4.10
2019-01-20T17:49:58.441Z,-4.20
2019-01-20T17:52:39.374Z,-4.40
2019-01-20T17:58:02.672Z,-4.40
2019-01-20T18:01:02.158Z,-4.40
2019-01-20T18:03:43.585Z,-4.50
2019-01-20T18:06:24.165Z,-4.60
2019-01-20T18:15:05.267Z,-4.40
2019-01-20T18:20:31.976Z,-4.70
2019-01-20T18:23:13.126Z,-4.70
2019-01-20T18:25:53.725Z,-4.70
2019-01-20T18:28:34.248Z,-4.80
2019-01-20T18:31:14.843Z,-4.80
2019-01-20T18:33:55.597Z,-4.90
2019-01-20T18:36:36.263Z,-4.90
2019-01-20T18:39:17.273Z,-4.90
2019-01-20T18:41:57.979Z,-6.70
2019-01-20T18:44:39.121Z,-5.00
2019-01-20T18:47:19.679Z,-5.10
2019-01-20T18:50:07.964Z,-5.20
2019-01-20T18:52:48.631Z,-5.20
2019-01-20T18:55:32.421Z,-5.30
2019-01-20T18:58:13.812Z,-5.30
2019-01-20T19:00:55.395Z,-5.50
2019-01-20T19:03:36.197Z,-5.50
2019-01-20T19:06:17.589Z,-5.50
2019-01-20T19:08:46.644Z,-5.60
2019-01-20T19:11:34.818Z,-5.70
2019-01-20T19:14:23.077Z,-5.70
2019-01-20T19:17:03.930Z,-5.70
2019-01-20T19:19:32.960Z,-3.80
2019-01-20T19:22:21.228Z,-5.80
2019-01-20T19:25:09.526Z,-6.00
2019-01-20T19:27:50.650Z,-6.00
2019-01-20T19:30:32.954Z,-6.10
2019-01-20T19:33:13.930Z,-6.10
2019-01-20T19:35:55.274Z,-6.20
2019-01-20T19:38:36.014Z,-6.30
2019-01-20T19:41:05.190Z,-6.20
2019-01-20T19:43:53.501Z,-6.10
2019-01-20T19:46:41.788Z,-6.10
2019-01-20T19:49:23.027Z,-6.10
2019-01-20T19:52:03.681Z,-6.00
2019-01-20T19:54:32.955Z,-6.00
2019-01-20T19:57:21.430Z,-6.10
2019-01-20T19:59:50.808Z,-6.10
2019-01-20T20:02:39.083Z,-6.00
2019-01-20T20:05:20.757Z,-6.20
2019-01-20T20:08:02.048Z,-6.10
2019-01-20T20:10:42.975Z,-7.00
2019-01-20T20:13:23.509Z,-6.30
2019-01-20T20:15:52.803Z,-6.30
2019-01-20T20:18:41.142Z,-6.30
2019-01-20T20:21:22.319Z,-6.30
2019-01-20T20:24:03.546Z,-6.40
2019-01-20T20:26:44.259Z,-6.40
2019-01-20T20:29:25.038Z,-6.40
2019-01-20T20:32:06.364Z,-6.50
2019-01-20T20:34:35.527Z,-6.50
2019-01-20T20:37:04.961Z,-5.20
2019-01-20T20:39:53.337Z,-6.30
2019-01-20T20:48:54.557Z,-6.40
2019-01-20T20:51:37.043Z,-6.40
2019-01-20T20:54:25.830Z,-6.30
2019-01-20T20:57:07.141Z,-6.30
2019-01-20T20:59:47.747Z,-6.30
2019-01-20T21:02:16.758Z,-6.20
2019-01-20T21:05:06.595Z,-6.20
2019-01-20T21:07:47.900Z,-6.20
2019-01-20T21:10:30.175Z,-6.20
2019-01-20T21:12:59.428Z,-6.20
2019-01-20T21:19:22.487Z,-6.20
2019-01-20T21:24:54.645Z,-6.20
2019-01-20T21:30:25.521Z,-6.20
2019-01-20T21:35:56.366Z,-6.00
2019-01-20T21:41:29.889Z,-6.00
2019-01-20T21:44:12.384Z,-6.10
2019-01-20T21:46:55.996Z,-6.20
2019-01-20T21:49:40.562Z,-6.20
2019-01-20T21:52:24.443Z,-6.20
2019-01-20T21:55:05.015Z,-6.10
2019-01-20T21:57:49.532Z,-6.00
2019-01-20T22:03:30.578Z,-6.10
2019-01-20T22:06:11.992Z,-6.00
2019-01-20T22:08:55.122Z,-6.10
2019-01-20T22:11:24.315Z,-6.20
2019-01-20T22:17:09.592Z,-6.10
2019-01-20T22:20:16.974Z,-6.30
2019-01-20T22:25:43.746Z,-6.20
2019-01-20T22:28:24.203Z,-6.20
2019-01-20T22:31:05.359Z,-6.20
2019-01-20T22:33:34.854Z,-6.30
2019-01-20T22:42:15.464Z,-6.40
2019-01-20T22:45:00.727Z,-6.40
2019-01-20T22:50:27.127Z,-6.40
2019-01-20T22:53:08.648Z,-6.40
2019-01-20T22:55:51.692Z,-6.60
2019-01-20T22:58:35.037Z,-6.60
2019-01-20T23:01:19.148Z,-6.50
2019-01-20T23:12:32.669Z,-6.50
2019-01-20T23:15:01.819Z,-6.60
2019-01-20T23:24:03.938Z,-6.90
2019-01-20T23:26:44.794Z,-6.90
2019-01-20T23:29:25.619Z,-7.00
2019-01-20T23:31:55.960Z,-7.00
2019-01-20T23:34:44.707Z,-7.10
2019-01-20T23:37:29.852Z,-7.30
2019-01-20T23:40:21.262Z,-7.40
2019-01-20T23:43:02.411Z,-7.40
2019-01-20T23:45:43.286Z,-7.40
2019-01-20T23:48:24.387Z,-7.50
2019-01-20T23:50:53.573Z,-7.50
2019-01-20T23:53:42.265Z,-7.50
2019-01-20T23:56:30.532Z,-7.50
2019-01-20T23:59:11.252Z,-7.40
